createdAt,value
2019-04-28T00:01:02.548Z,100774.34
2019-04-28T00:03:31.989Z,100772.55
2019-04-28T00:06:01.220Z,100780.52
2019-04-28T00:08:31.881Z,100769.48
2019-04-28T00:11:01.805Z,100770.80
2019-04-28T00:13:32.135Z,100778.30
2019-04-28T00:16:01.610Z,100769.00
2019-04-28T00:18:31.680Z,100786.68
2019-04-28T00:21:17.136Z,100778.74
2019-04-28T00:23:56.608Z,100787.10
2019-04-28T00:26:47.425Z,100788.45
2019-04-28T00:29:16.523Z,100785.79
2019-04-28T00:31:45.626Z,100783.14
2019-04-28T00:34:14.731Z,100788.44
2019-04-28T00:36:45.463Z,100784.89
2019-04-28T00:39:14.558Z,100782.67
2019-04-28T00:41:43.638Z,100778.23
2019-04-28T00:44:12.805Z,100792.36
2019-04-28T00:46:43.102Z,100791.48
2019-04-28T00:49:12.306Z,100785.75
2019-04-28T00:51:41.708Z,100792.38
2019-04-28T00:54:12.050Z,100791.48
2019-04-28T00:56:42.032Z,100795.45
2019-04-28T00:59:11.930Z,100797.68
2019-04-28T01:01:47.414Z,100808.69
2019-04-28T01:04:16.499Z,100814.02
2019-04-28T01:06:45.596Z,100809.13
2019-04-28T01:09:14.740Z,100803.39
2019-04-28T01:11:43.825Z,100798.95
2019-04-28T01:14:12.915Z,100794.95
2019-04-28T01:16:51.567Z,100802.93
2019-04-28T01:19:24.899Z,100797.61
2019-04-28T01:22:10.974Z,100801.58
2019-04-28T01:24:40.591Z,100795.81
2019-04-28T01:27:37.842Z,100797.58
2019-04-28T01:30:11.531Z,100792.72
2019-04-28T01:32:46.294Z,100791.40
2019-04-28T01:35:15.492Z,100789.17
2019-04-28T01:37:44.566Z,100793.14
2019-04-28T01:40:13.663Z,100796.70
2019-04-28T01:42:42.661Z,100795.80
2019-04-28T01:45:11.851Z,100794.91
2019-04-28T01:47:40.928Z,100794.02
2019-04-28T01:50:10.325Z,100787.83
2019-04-28T01:52:40.099Z,100788.26
2019-04-28T01:55:10.123Z,100794.47
2019-04-28T01:57:39.953Z,100796.20
2019-04-28T02:00:22.284Z,100795.78
2019-04-28T02:02:43.230Z,100797.97
2019-04-28T02:05:12.606Z,100808.16
2019-04-28T02:07:41.691Z,100808.56
2019-04-28T02:10:11.082Z,100808.56
2019-04-28T02:12:40.440Z,100814.73
2019-04-28T02:15:10.449Z,100813.39
2019-04-28T02:17:40.236Z,100813.38
2019-04-28T02:20:10.380Z,100816.46
2019-04-28T02:22:45.431Z,100826.19
2019-04-28T02:25:14.614Z,100825.28
2019-04-28T02:27:43.687Z,100830.99
2019-04-28T02:30:12.802Z,100831.41
2019-04-28T02:32:41.988Z,100831.83
2019-04-28T02:35:11.181Z,100833.59
2019-04-28T02:37:40.756Z,100834.47
2019-04-28T02:40:10.807Z,100834.86
2019-04-28T02:42:40.904Z,100829.98
2019-04-28T02:45:11.633Z,100831.75
2019-04-28T02:47:42.195Z,100830.88
2019-04-28T02:50:21.354Z,100825.12
2019-04-28T02:53:01.344Z,100828.23
2019-04-28T02:55:31.674Z,100826.00
2019-04-28T02:58:01.482Z,100834.86
2019-04-28T03:00:31.720Z,100840.14
2019-04-28T03:03:01.657Z,100848.52
2019-04-28T03:05:33.525Z,100851.58
2019-04-28T03:08:01.675Z,100850.69
2019-04-28T03:10:31.343Z,100857.77
2019-04-28T03:13:01.411Z,100862.14
2019-04-28T03:15:30.877Z,100868.35
2019-04-28T03:18:01.871Z,100867.45
2019-04-28T03:20:31.297Z,100870.55
2019-04-28T03:23:01.050Z,100864.80
2019-04-28T03:25:40.552Z,100868.32
2019-04-28T03:28:14.889Z,100872.73
2019-04-28T03:30:53.892Z,100872.25
2019-04-28T03:33:25.383Z,100869.56
2019-04-28T03:35:54.054Z,100877.52
2019-04-28T03:38:23.431Z,100877.48
2019-04-28T03:40:52.533Z,100877.00
2019-04-28T03:43:21.600Z,100881.86
2019-04-28T03:45:55.535Z,100884.94
2019-04-28T03:48:24.599Z,100890.25
2019-04-28T03:50:53.690Z,100884.09
2019-04-28T03:53:22.755Z,100885.84
2019-04-28T03:55:51.905Z,100885.84
2019-04-28T03:58:24.167Z,100892.89
2019-04-28T04:00:51.841Z,100887.16
2019-04-28T04:03:21.303Z,100899.00
2019-04-28T04:05:50.992Z,100895.88
2019-04-28T04:08:21.126Z,100902.04
2019-04-28T04:11:10.851Z,100900.25
2019-04-28T04:13:48.075Z,100905.11
2019-04-28T04:16:45.315Z,100898.48
2019-04-28T04:19:14.588Z,100903.77
2019-04-28T04:21:43.686Z,100901.97
2019-04-28T04:24:12.788Z,100909.91
2019-04-28T04:26:41.899Z,100905.03
2019-04-28T04:29:11.187Z,100909.84
2019-04-28T04:31:41.314Z,100908.09
2019-04-28T04:34:10.864Z,100912.05
2019-04-28T04:36:41.693Z,100915.16
2019-04-28T04:39:10.962Z,100918.26
2019-04-28T04:41:43.253Z,100916.05
2019-04-28T04:44:11.301Z,100917.83
2019-04-28T04:46:43.444Z,100919.13
2019-04-28T04:49:12.523Z,100925.77
2019-04-28T04:51:43.985Z,100926.60
2019-04-28T04:54:12.515Z,100927.50
2019-04-28T04:56:41.574Z,100938.55
2019-04-28T04:59:10.707Z,100943.86
2019-04-28T05:02:02.827Z,100953.98
2019-04-28T05:04:50.976Z,100954.41
2019-04-28T05:07:20.095Z,100963.65
2019-04-28T05:09:49.614Z,100964.55
2019-04-28T05:12:19.601Z,100968.08
2019-04-28T05:14:49.451Z,100976.90
2019-04-28T05:17:20.300Z,100977.78
2019-04-28T05:19:49.753Z,100975.09
2019-04-28T05:22:20.753Z,100982.16
2019-04-28T05:25:00.084Z,100987.00
2019-04-28T05:27:30.073Z,100986.59
2019-04-28T05:30:03.770Z,100973.78
2019-04-28T05:32:42.630Z,100968.92
2019-04-28T05:35:01.726Z,100965.40
2019-04-28T05:37:30.823Z,100959.68
2019-04-28T05:40:00.903Z,100953.09
2019-04-28T05:42:30.333Z,100956.63
2019-04-28T05:45:00.057Z,100965.02
2019-04-28T05:47:30.609Z,100977.81
2019-04-28T05:50:14.395Z,100989.30
2019-04-28T05:53:02.491Z,100995.04
2019-04-28T05:55:45.519Z,101002.11
2019-04-28T05:58:25.781Z,101010.98
2019-04-28T06:01:15.633Z,101018.05
2019-04-28T06:03:44.961Z,101028.21
2019-04-28T06:06:14.043Z,101026.45
2019-04-28T06:09:04.052Z,101029.08
2019-04-28T06:11:35.117Z,101032.65
2019-04-28T06:14:04.326Z,101037.57
2019-04-28T06:16:33.403Z,101042.02
2019-04-28T06:19:02.502Z,101040.66
2019-04-28T06:21:31.569Z,101040.16
2019-04-28T06:24:00.672Z,101041.48
2019-04-28T06:26:29.925Z,101044.66
2019-04-28T06:28:59.005Z,101043.78
2019-04-28T06:31:28.109Z,101049.98
2019-04-28T06:33:57.231Z,101058.84
2019-04-28T06:36:26.301Z,101064.63
2019-04-28T06:38:55.358Z,101066.84
2019-04-28T06:41:24.523Z,101074.80
2019-04-28T06:43:54.156Z,101068.23
2019-04-28T06:46:23.250Z,101072.66
2019-04-28T06:48:52.376Z,101075.78
2019-04-28T06:51:21.540Z,101072.27
2019-04-28T06:53:50.644Z,101079.39
2019-04-28T06:56:19.800Z,101086.11
2019-04-28T06:58:58.902Z,101081.37
2019-04-28T07:01:19.818Z,101089.84
2019-04-28T07:03:48.999Z,101091.67
2019-04-28T07:06:18.142Z,101089.09
2019-04-28T07:08:47.253Z,101090.48
2019-04-28T07:11:16.397Z,101088.31
2019-04-28T07:13:45.510Z,101092.31
2019-04-28T07:16:14.618Z,101090.97
2019-04-28T07:18:46.857Z,101094.06
2019-04-28T07:21:22.297Z,101094.92
2019-04-28T07:23:51.421Z,101084.77
2019-04-28T07:26:20.525Z,101086.11
2019-04-28T07:28:52.612Z,101087.44
2019-04-28T07:31:23.519Z,101084.79
2019-04-28T07:33:52.735Z,101082.14
2019-04-28T07:36:21.824Z,101083.89
2019-04-28T07:38:50.917Z,101080.41
2019-04-28T07:41:20.033Z,101085.73
2019-04-28T07:43:49.111Z,101086.14
2019-04-28T07:46:18.207Z,101087.05
2019-04-28T07:48:47.270Z,101095.93
2019-04-28T07:51:16.447Z,101099.06
2019-04-28T07:53:52.668Z,101100.44
2019-04-28T07:56:21.796Z,101101.33
2019-04-28T07:58:50.862Z,101107.52
2019-04-28T08:01:19.984Z,101113.27
2019-04-28T08:03:49.991Z,101111.99
2019-04-28T08:06:19.342Z,101111.16
2019-04-28T08:08:48.425Z,101112.05
2019-04-28T08:11:17.544Z,101116.45
2019-04-28T08:13:46.758Z,101120.45
2019-04-28T08:16:15.954Z,101131.09
2019-04-28T08:18:45.070Z,101129.34
2019-04-28T08:21:14.182Z,101141.34
2019-04-28T08:23:47.403Z,101135.17
2019-04-28T08:26:14.122Z,101142.28
2019-04-28T08:28:43.231Z,101142.75
2019-04-28T08:31:14.022Z,101156.05
2019-04-28T08:34:01.364Z,101155.16
2019-04-28T08:36:20.166Z,101153.41
2019-04-28T08:38:49.260Z,101155.23
2019-04-28T08:41:18.384Z,101159.22
2019-04-28T08:43:47.506Z,101163.23
2019-04-28T08:46:16.678Z,101165.94
2019-04-28T08:48:45.751Z,101169.55
2019-04-28T08:51:14.902Z,101166.05
2019-04-28T08:53:43.979Z,101168.31
2019-04-28T08:56:13.108Z,101177.19
2019-04-28T08:58:42.201Z,101187.41
2019-04-28T09:01:11.319Z,101193.63
2019-04-28T09:03:40.404Z,101200.31
2019-04-28T09:06:09.510Z,101192.81
2019-04-28T09:08:38.585Z,101188.84
2019-04-28T09:11:07.681Z,101192.41
2019-04-28T09:13:37.834Z,101194.20
2019-04-28T09:16:06.927Z,101188.05
2019-04-28T09:18:36.015Z,101190.70
2019-04-28T09:21:05.115Z,101189.86
2019-04-28T09:23:34.232Z,101193.41
2019-04-28T09:26:03.327Z,101203.16
2019-04-28T09:28:32.405Z,101196.98
2019-04-28T09:31:01.609Z,101197.84
2019-04-28T09:33:30.689Z,101207.17
2019-04-28T09:35:59.717Z,101209.42
2019-04-28T09:38:28.790Z,101211.17
2019-04-28T09:40:57.894Z,101207.64
2019-04-28T09:43:45.962Z,101207.62
2019-04-28T09:46:24.402Z,101203.63
2019-04-28T09:48:53.663Z,101201.81
2019-04-28T09:51:22.773Z,101197.82
2019-04-28T09:53:51.866Z,101195.61
2019-04-28T09:56:20.977Z,101201.81
2019-04-28T09:58:50.087Z,101196.94
2019-04-28T10:01:19.681Z,101203.17
2019-04-28T10:03:48.792Z,101197.40
2019-04-28T10:06:17.888Z,101190.28
2019-04-28T10:08:46.996Z,101188.03
2019-04-28T10:11:16.068Z,101178.62
2019-04-28T10:13:49.919Z,101174.09
2019-04-28T10:16:19.000Z,101181.59
2019-04-28T10:18:48.102Z,101166.45
2019-04-28T10:21:17.178Z,101175.31
2019-04-28T10:23:46.294Z,101177.97
2019-04-28T10:26:15.380Z,101174.84
2019-04-28T10:28:44.474Z,101174.84
2019-04-28T10:31:13.683Z,101178.00
2019-04-28T10:33:44.924Z,101180.26
2019-04-28T10:36:15.660Z,101189.61
2019-04-28T10:38:46.503Z,101184.75
2019-04-28T10:41:22.563Z,101186.14
2019-04-28T10:43:51.675Z,101182.14
2019-04-28T10:46:20.748Z,101186.60
2019-04-28T10:48:49.939Z,101182.59
2019-04-28T10:51:19.139Z,101178.16
2019-04-28T10:53:48.179Z,101174.61
2019-04-28T10:56:17.255Z,101168.76
2019-04-28T10:58:47.914Z,101163.34
2019-04-28T11:01:16.996Z,101161.01
2019-04-28T11:03:47.738Z,101160.87
2019-04-28T11:06:16.805Z,101162.08
2019-04-28T11:08:56.331Z,101157.91
2019-04-28T11:11:27.342Z,101152.44
2019-04-28T11:13:56.625Z,101153.08
2019-04-28T11:16:30.677Z,101155.09
2019-04-28T11:18:59.778Z,101154.42
2019-04-28T11:21:28.843Z,101148.31
2019-04-28T11:23:57.927Z,101152.39
2019-04-28T11:26:26.991Z,101159.67
2019-04-28T11:28:56.366Z,101158.82
2019-04-28T11:31:25.448Z,101164.58
2019-04-28T11:34:12.369Z,101165.66
2019-04-28T11:36:41.556Z,101164.59
2019-04-28T11:39:13.135Z,101172.09
2019-04-28T11:41:42.178Z,101174.19
2019-04-28T11:44:11.548Z,101172.69
2019-04-28T11:46:40.544Z,101180.11
2019-04-28T11:49:09.626Z,101176.47
2019-04-28T11:51:38.696Z,101171.94
2019-04-28T11:54:07.785Z,101175.01
2019-04-28T11:56:41.467Z,101178.97
2019-04-28T11:59:07.661Z,101182.20
2019-04-28T12:01:36.729Z,101180.11
2019-04-28T12:04:07.492Z,101180.16
2019-04-28T12:06:36.487Z,101189.49
2019-04-28T12:09:27.252Z,101194.64
2019-04-28T12:11:56.766Z,101189.42
2019-04-28T12:14:33.904Z,101182.77
2019-04-28T12:17:35.198Z,101189.13
2019-04-28T12:20:10.383Z,101180.65
2019-04-28T12:22:39.436Z,101183.50
2019-04-28T12:25:08.534Z,101176.69
2019-04-28T12:27:37.602Z,101182.01
2019-04-28T12:30:07.168Z,101185.83
2019-04-28T12:32:36.227Z,101190.84
2019-04-28T12:35:05.827Z,101193.97
2019-04-28T12:37:34.911Z,101191.71
2019-04-28T12:40:04.272Z,101189.35
2019-04-28T12:42:33.331Z,101187.63
2019-04-28T12:45:02.438Z,101191.89
2019-04-28T12:47:31.503Z,101199.80
2019-04-28T12:50:06.644Z,101190.41
2019-04-28T12:52:35.714Z,101198.09
2019-04-28T12:55:05.327Z,101203.34
2019-04-28T12:57:34.385Z,101202.34
2019-04-28T13:00:18.908Z,101200.57
2019-04-28T13:03:05.714Z,101202.39
2019-04-28T13:05:36.683Z,101212.68
2019-04-28T13:08:05.758Z,101203.33
2019-04-28T13:10:34.845Z,101209.95
2019-04-28T13:13:03.902Z,101211.30
2019-04-28T13:15:33.007Z,101209.75
2019-04-28T13:18:02.065Z,101215.41
2019-04-28T13:20:31.125Z,101217.67
2019-04-28T13:23:00.138Z,101212.30
2019-04-28T13:25:29.210Z,101208.92
2019-04-28T13:27:58.311Z,101209.64
2019-04-28T13:30:27.429Z,101221.87
2019-04-28T13:32:56.485Z,101222.55
2019-04-28T13:35:25.639Z,101219.59
2019-04-28T13:37:54.712Z,101222.45
2019-04-28T13:40:28.222Z,101223.08
2019-04-28T13:42:57.285Z,101218.67
2019-04-28T13:45:26.657Z,101220.27
2019-04-28T13:47:55.681Z,101219.63
2019-04-28T13:50:31.959Z,101224.34
2019-04-28T13:53:01.071Z,101215.59
2019-04-28T13:55:41.811Z,101208.69
2019-04-28T13:58:10.879Z,101213.81
2019-04-28T14:00:51.763Z,101209.94
2019-04-28T14:03:39.870Z,101205.47
2019-04-28T14:06:11.616Z,101206.31
2019-04-28T14:08:40.709Z,101205.77
2019-04-28T14:11:09.777Z,101213.23
2019-04-28T14:13:38.864Z,101206.76
2019-04-28T14:16:08.020Z,101212.98
2019-04-28T14:18:37.062Z,101200.92
2019-04-28T14:21:07.910Z,101202.61
2019-04-28T14:23:37.004Z,101197.62
2019-04-28T14:26:06.085Z,101207.17
2019-04-28T14:28:35.222Z,101204.70
2019-04-28T14:31:04.274Z,101205.62
2019-04-28T14:33:33.581Z,101211.09
2019-04-28T14:36:02.742Z,101205.78
2019-04-28T14:38:31.829Z,101210.27
2019-04-28T14:41:00.966Z,101207.11
2019-04-28T14:43:30.055Z,101208.64
2019-04-28T14:45:59.147Z,101213.30
2019-04-28T14:48:28.208Z,101210.75
2019-04-28T14:50:57.258Z,101211.99
2019-04-28T14:53:26.358Z,101211.77
2019-04-28T14:55:55.412Z,101208.43
2019-04-28T14:58:24.503Z,101218.50
2019-04-28T15:00:58.312Z,101217.38
2019-04-28T15:03:29.064Z,101213.73
2019-04-28T15:06:22.989Z,101214.64
2019-04-28T15:09:09.716Z,101215.59
2019-04-28T15:11:42.965Z,101214.26
2019-04-28T15:14:12.054Z,101217.80
2019-04-28T15:16:41.207Z,101219.48
2019-04-28T15:19:10.338Z,101221.00
2019-04-28T15:21:39.315Z,101218.39
2019-04-28T15:24:08.460Z,101218.12
2019-04-28T15:26:37.528Z,101215.20
2019-04-28T15:29:06.779Z,101219.36
2019-04-28T15:31:35.877Z,101222.33
2019-04-28T15:34:05.170Z,101227.52
2019-04-28T15:36:34.234Z,101228.30
2019-04-28T15:39:03.830Z,101228.63
2019-04-28T15:41:32.831Z,101228.42
2019-04-28T15:44:01.971Z,101233.07
2019-04-28T15:46:31.032Z,101232.71
2019-04-28T15:49:00.022Z,101235.17
2019-04-28T15:51:29.111Z,101234.55
2019-04-28T15:53:58.172Z,101242.31
2019-04-28T15:56:35.697Z,101242.09
2019-04-28T15:59:05.883Z,101241.04
2019-04-28T16:01:34.959Z,101249.77
2019-04-28T16:04:04.085Z,101246.33
2019-04-28T16:06:33.252Z,101241.94
2019-04-28T16:09:02.245Z,101241.19
2019-04-28T16:11:40.188Z,101246.31
2019-04-28T16:14:09.258Z,101244.80
2019-04-28T16:16:38.406Z,101248.69
2019-04-28T16:19:07.675Z,101249.42
2019-04-28T16:21:36.790Z,101254.53
2019-04-28T16:24:06.382Z,101253.84
2019-04-28T16:26:35.493Z,101250.53
2019-04-28T16:29:05.057Z,101251.63
2019-04-28T16:31:34.166Z,101257.13
2019-04-28T16:34:03.253Z,101255.09
2019-04-28T16:36:32.377Z,101249.00
2019-04-28T16:39:01.410Z,101253.63
2019-04-28T16:41:30.500Z,101263.63
2019-04-28T16:43:59.585Z,101262.07
2019-04-28T16:46:28.670Z,101259.98
2019-04-28T16:48:57.735Z,101258.80
2019-04-28T16:51:26.823Z,101262.02
2019-04-28T16:53:55.887Z,101260.75
2019-04-28T16:56:43.976Z,101264.42
2019-04-28T16:59:25.274Z,101267.16
2019-04-28T17:02:01.084Z,101267.20
2019-04-28T17:04:30.079Z,101265.45
2019-04-28T17:06:59.169Z,101270.47
2019-04-28T17:09:28.238Z,101275.86
2019-04-28T17:11:57.330Z,101275.04
2019-04-28T17:14:26.401Z,101272.46
2019-04-28T17:16:55.514Z,101279.66
2019-04-28T17:19:24.576Z,101279.67
2019-04-28T17:21:53.673Z,101279.25
2019-04-28T17:24:22.785Z,101278.87
2019-04-28T17:26:51.870Z,101278.02
2019-04-28T17:29:20.929Z,101286.95
2019-04-28T17:31:50.035Z,101286.56
2019-04-28T17:34:19.101Z,101290.16
2019-04-28T17:36:48.222Z,101293.33
2019-04-28T17:39:20.167Z,101289.39
2019-04-28T17:41:49.465Z,101289.42
2019-04-28T17:44:18.592Z,101289.48
2019-04-28T17:46:47.687Z,101294.86
2019-04-28T17:49:16.745Z,101290.43
2019-04-28T17:51:45.818Z,101295.38
2019-04-28T17:54:14.906Z,101292.73
2019-04-28T17:56:43.980Z,101297.23
2019-04-28T17:59:13.078Z,101304.41
2019-04-28T18:02:00.124Z,101308.48
2019-04-28T18:04:39.926Z,101310.73
2019-04-28T18:07:13.697Z,101310.80
2019-04-28T18:09:42.763Z,101317.52
2019-04-28T18:12:11.979Z,101313.99
2019-04-28T18:14:42.726Z,101315.34
2019-04-28T18:17:29.771Z,101316.28
2019-04-28T18:19:58.892Z,101316.77
2019-04-28T18:22:27.995Z,101323.47
2019-04-28T18:24:57.054Z,101324.39
2019-04-28T18:27:26.151Z,101329.80
2019-04-28T18:29:55.228Z,101333.81
2019-04-28T18:32:43.255Z,101332.50
2019-04-28T18:35:22.772Z,101338.30
2019-04-28T18:37:59.645Z,101342.82
2019-04-28T18:40:53.967Z,101351.68
2019-04-28T18:43:42.051Z,101353.47
2019-04-28T18:46:11.135Z,101353.52
2019-04-28T18:48:40.228Z,101357.98
2019-04-28T18:51:09.299Z,101357.56
2019-04-28T18:53:38.401Z,101364.23
2019-04-28T18:56:07.467Z,101370.89
2019-04-28T18:58:36.550Z,101381.59
2019-04-28T19:01:24.413Z,101374.05
2019-04-28T19:03:53.516Z,101379.37
2019-04-28T19:06:22.509Z,101376.70
2019-04-28T19:08:56.579Z,101387.39
2019-04-28T19:11:43.226Z,101386.50
2019-04-28T19:14:17.984Z,101383.41
2019-04-28T19:16:58.754Z,101389.14
2019-04-28T19:19:28.954Z,101397.16
2019-04-28T19:21:58.027Z,101395.81
2019-04-28T19:24:27.649Z,101401.58
2019-04-28T19:26:56.714Z,101412.69
2019-04-28T19:29:25.810Z,101410.47
2019-04-28T19:31:54.897Z,101419.31
2019-04-28T19:34:23.990Z,101419.75
2019-04-28T19:36:52.986Z,101422.84
2019-04-28T19:39:22.082Z,101417.08
2019-04-28T19:41:51.145Z,101412.20
2019-04-28T19:44:20.225Z,101419.29
2019-04-28T19:46:49.286Z,101416.16
2019-04-28T19:49:18.377Z,101420.58
2019-04-28T19:51:47.455Z,101425.42
2019-04-28T19:54:18.501Z,101420.95
2019-04-28T19:57:11.186Z,101425.84
2019-04-28T20:00:17.714Z,101423.16
2019-04-28T20:02:46.820Z,101426.68
2019-04-28T20:05:15.934Z,101434.20
2019-04-28T20:07:45.007Z,101428.41
2019-04-28T20:10:14.505Z,101431.95
2019-04-28T20:12:43.579Z,101434.58
2019-04-28T20:15:12.673Z,101438.12
2019-04-28T20:17:41.731Z,101433.21
2019-04-28T20:20:11.009Z,101435.40
2019-04-28T20:22:40.093Z,101429.18
2019-04-28T20:25:09.284Z,101430.94
2019-04-28T20:27:38.363Z,101434.90
2019-04-28T20:30:07.682Z,101434.43
2019-04-28T20:32:44.687Z,101439.73
2019-04-28T20:35:16.862Z,101443.70
2019-04-28T20:38:06.793Z,101438.82
2019-04-28T20:40:46.666Z,101441.47
2019-04-28T20:43:17.872Z,101448.53
2019-04-28T20:45:46.884Z,101447.17
2019-04-28T20:48:15.973Z,101449.83
2019-04-28T20:50:45.055Z,101455.56
2019-04-28T20:53:14.123Z,101461.77
2019-04-28T20:55:43.140Z,101460.41
2019-04-28T20:58:12.215Z,101463.03
2019-04-28T21:00:41.378Z,101459.46
2019-04-28T21:03:10.461Z,101465.21
2019-04-28T21:05:39.547Z,101465.19
2019-04-28T21:08:08.626Z,101466.95
2019-04-28T21:10:38.631Z,101460.25
2019-04-28T21:13:07.767Z,101466.88
2019-04-28T21:15:36.855Z,101468.64
2019-04-28T21:18:05.919Z,101460.64
2019-04-28T21:20:35.009Z,101469.48
2019-04-28T21:23:04.072Z,101465.48
2019-04-28T21:25:33.161Z,101465.90
2019-04-28T21:28:02.240Z,101463.66
2019-04-28T21:30:31.322Z,101459.20
2019-04-28T21:33:00.424Z,101462.30
2019-04-28T21:35:29.651Z,101469.80
2019-04-28T21:37:58.745Z,101468.45
2019-04-28T21:40:28.291Z,101466.70
2019-04-28T21:43:03.170Z,101469.77
2019-04-28T21:45:50.629Z,101462.20
2019-04-28T21:48:38.378Z,101468.44
2019-04-28T21:51:07.473Z,101471.95
2019-04-28T21:53:36.555Z,101467.95
2019-04-28T21:56:05.766Z,101464.84
2019-04-28T21:58:34.868Z,101464.84
2019-04-28T22:01:04.123Z,101468.34
2019-04-28T22:03:33.138Z,101470.12
2019-04-28T22:06:02.208Z,101473.19
2019-04-28T22:08:31.287Z,101471.86
2019-04-28T22:11:00.359Z,101477.17
2019-04-28T22:13:29.446Z,101469.63
2019-04-28T22:15:58.446Z,101478.93
2019-04-28T22:18:27.548Z,101477.17
2019-04-28T22:20:56.624Z,101472.70
2019-04-28T22:23:34.979Z,101470.94
2019-04-28T22:26:04.067Z,101479.30
2019-04-28T22:28:33.168Z,101475.28
2019-04-28T22:31:02.250Z,101480.55
2019-04-28T22:33:31.341Z,101467.23
2019-04-28T22:36:00.406Z,101472.97
2019-04-28T22:38:29.498Z,101479.59
2019-04-28T22:40:58.485Z,101476.94
2019-04-28T22:43:27.570Z,101482.24
2019-04-28T22:45:56.635Z,101479.59
2019-04-28T22:48:26.507Z,101481.78
2019-04-28T22:50:55.668Z,101481.34
2019-04-28T22:53:31.303Z,101479.55
2019-04-28T22:56:22.191Z,101475.55
2019-04-28T22:58:55.239Z,101474.64
2019-04-28T23:01:44.738Z,101487.03
2019-04-28T23:04:30.268Z,101477.27
2019-04-28T23:06:59.327Z,101489.18
2019-04-28T23:09:28.431Z,101484.30
2019-04-28T23:11:57.517Z,101490.47
2019-04-28T23:14:26.643Z,101496.20
2019-04-28T23:16:55.722Z,101490.87
2019-04-28T23:19:27.085Z,101494.42
2019-04-28T23:22:05.565Z,101495.28
2019-04-28T23:24:34.652Z,101495.70
2019-04-28T23:27:03.832Z,101503.62
2019-04-28T23:29:32.919Z,101497.87
2019-04-28T23:32:02.007Z,101498.24
2019-04-28T23:34:31.086Z,101500.46
2019-04-28T23:37:00.141Z,101499.09
2019-04-28T23:39:29.227Z,101507.93
2019-04-28T23:42:09.301Z,101504.82
2019-04-28T23:44:38.302Z,101493.72
2019-04-28T23:47:07.467Z,101498.59
2019-04-28T23:49:36.544Z,101503.42
2019-04-28T23:52:18.574Z,101494.12
2019-04-28T23:54:49.632Z,101498.07
2019-04-28T23:57:18.612Z,101497.61
2019-04-28T23:59:47.706Z,101495.38
